Terminal Aerodrome Forecast
Issued by NWS Columbia, SC

Home | Current Version | Previous Version | Text Only | Print | Product List | Glossary On
Versions: 1 2 3 4 5 6 7 8 9 10 11 12 13 14 15 16 17 18 19 20 21 22 23 24 25 26 27 28 29 30 31 32 33 34 35 36 37 38 39 40 41 42 43 44 45
000
FTAK31 PAJN 180538
TAFAGS
TAF
PAGS 180538Z 1806/1906 13008KT P6SM VCSH SCT035 BKN050 OVC140
     FM180800 VRB05KT P6SM VCSH BKN040 OVC090
     FM181200 36007KT P6SM -RA OVC045
     FM181900 35006KT P6SM -RA OVC025
     FM190300 35005KT P6SM VCSH BKN025 OVC040
      AMD LTD TO CLD VIS AND WIND=

USA.gov is the U.S. government's official web portal to all federal, state and local government web resources and services.